Aviation Digital Data Service (ADDS)

Output produced by METARs form (2055 UTC 01 December 2021)
found at http://aviationweather.gov/metar/data/
 
KMSY 011740Z 0118/0224 18006KT P6SM SCT250 
     FM021100 00000KT 4SM BR FEW250 
     FM021400 00000KT 6SM BR FEW150